sensor_id;sensor_type;location;lat;lon;timestamp;pressure;altitude;pressure_sealevel;temperature;humidity
43824;BME280;29470;53.550;9.926;2023-03-14T00:03:44;98397.69;;;14.55;73.45
43824;BME280;29470;53.550;9.926;2023-03-14T00:08:47;98405.19;;;14.37;73.77
43824;BME280;29470;53.550;9.926;2023-03-14T00:13:52;98416.94;;;14.67;73.37
43824;BME280;29470;53.550;9.926;2023-03-14T00:18:54;98422.59;;;14.95;71.15
43824;BME280;29470;53.550;9.926;2023-03-14T00:23:57;98419.09;;;14.93;70.24
43824;BME280;29470;53.550;9.926;2023-03-14T00:29:01;98405.94;;;14.82;70.61
43824;BME280;29470;53.550;9.926;2023-03-14T00:34:04;98395.13;;;14.58;71.33
43824;BME280;29470;53.550;9.926;2023-03-14T00:39:07;98375.09;;;15.11;69.03
43824;BME280;29470;53.550;9.926;2023-03-14T00:44:11;98375.56;;;14.82;70.35
43824;BME280;29470;53.550;9.926;2023-03-14T00:49:14;98364.81;;;14.61;71.09
43824;BME280;29470;53.550;9.926;2023-03-14T00:54:18;98352.91;;;14.75;70.10
43824;BME280;29470;53.550;9.926;2023-03-14T00:59:22;98369.47;;;14.80;69.30
43824;BME280;29470;53.550;9.926;2023-03-14T01:04:26;98370.53;;;14.38;71.54
43824;BME280;29470;53.550;9.926;2023-03-14T01:09:29;98383.19;;;14.70;69.98
43824;BME280;29470;53.550;9.926;2023-03-14T01:14:33;98375.25;;;15.24;67.96
43824;BME280;29470;53.550;9.926;2023-03-14T01:19:38;98389.72;;;15.03;68.33
43824;BME280;29470;53.550;9.926;2023-03-14T01:24:41;98375.75;;;15.67;65.79
43824;BME280;29470;53.550;9.926;2023-03-14T01:29:45;98374.47;;;15.31;67.46
43824;BME280;29470;53.550;9.926;2023-03-14T01:34:50;98346.78;;;15.39;66.43
43824;BME280;29470;53.550;9.926;2023-03-14T01:39:53;98329.78;;;14.97;68.55
43824;BME280;29470;53.550;9.926;2023-03-14T01:44:59;98302.94;;;14.99;68.71
43824;BME280;29470;53.550;9.926;2023-03-14T01:50:05;98298.44;;;14.86;69.43
43824;BME280;29470;53.550;9.926;2023-03-14T01:55:12;98294.88;;;14.79;70.67
43824;BME280;29470;53.550;9.926;2023-03-14T02:00:18;98318.75;;;15.18;67.98
43824;BME280;29470;53.550;9.926;2023-03-14T02:05:25;98315.25;;;15.16;68.27
43824;BME280;29470;53.550;9.926;2023-03-14T02:10:41;98297.78;;;15.06;69.09
43824;BME280;29470;53.550;9.926;2023-03-14T02:15:47;98260.69;;;15.24;67.56
43824;BME280;29470;53.550;9.926;2023-03-14T02:21:20;98237.41;;;15.39;66.53
43824;BME280;29470;53.550;9.926;2023-03-14T02:26:28;98239.50;;;14.91;68.22
43824;BME280;29470;53.550;9.926;2023-03-14T02:31:36;98249.25;;;15.11;66.72
43824;BME280;29470;53.550;9.926;2023-03-14T02:36:39;98246.81;;;15.26;65.70
43824;BME280;29470;53.550;9.926;2023-03-14T02:41:42;98255.19;;;14.99;67.26
43824;BME280;29470;53.550;9.926;2023-03-14T02:46:48;98253.50;;;15.01;67.55
43824;BME280;29470;53.550;9.926;2023-03-14T02:51:51;98259.00;;;15.29;66.39
43824;BME280;29470;53.550;9.926;2023-03-14T02:56:54;98260.19;;;15.62;64.76
43824;BME280;29470;53.550;9.926;2023-03-14T03:02:00;98269.44;;;15.34;66.33
43824;BME280;29470;53.550;9.926;2023-03-14T03:07:05;98265.78;;;15.14;67.89
43824;BME280;29470;53.550;9.926;2023-03-14T03:12:08;98257.91;;;15.98;64.73
43824;BME280;29470;53.550;9.926;2023-03-14T03:17:12;98254.16;;;15.71;64.36
43824;BME280;29470;53.550;9.926;2023-03-14T03:22:15;98246.91;;;15.34;65.10
43824;BME280;29470;53.550;9.926;2023-03-14T03:27:25;98227.75;;;15.30;66.36
43824;BME280;29470;53.550;9.926;2023-03-14T03:32:30;98225.38;;;15.55;65.37
43824;BME280;29470;53.550;9.926;2023-03-14T03:37:33;98224.19;;;15.21;67.43
43824;BME280;29470;53.550;9.926;2023-03-14T03:42:39;98205.22;;;15.36;66.45
43824;BME280;29470;53.550;9.926;2023-03-14T03:47:45;98198.16;;;15.21;66.43
43824;BME280;29470;53.550;9.926;2023-03-14T03:52:48;98198.28;;;14.56;68.99
43824;BME280;29470;53.550;9.926;2023-03-14T03:57:51;98207.28;;;14.80;68.75
43824;BME280;29470;53.550;9.926;2023-03-14T04:02:56;98212.97;;;15.25;66.54
43824;BME280;29470;53.550;9.926;2023-03-14T04:07:59;98202.13;;;14.83;68.93
43824;BME280;29470;53.550;9.926;2023-03-14T04:13:03;98194.97;;;14.68;69.62
43824;BME280;29470;53.550;9.926;2023-03-14T04:18:09;98198.47;;;14.70;68.64
43824;BME280;29470;53.550;9.926;2023-03-14T04:23:12;98186.94;;;14.49;69.47
43824;BME280;29470;53.550;9.926;2023-03-14T04:28:15;98192.66;;;14.91;67.68
43824;BME280;29470;53.550;9.926;2023-03-14T04:33:21;98186.00;;;14.42;69.03
43824;BME280;29470;53.550;9.926;2023-03-14T04:38:27;98186.66;;;14.26;69.87
43824;BME280;29470;53.550;9.926;2023-03-14T04:43:30;98175.53;;;15.13;66.93
43824;BME280;29470;53.550;9.926;2023-03-14T04:48:39;98182.03;;;14.71;68.37
43824;BME280;29470;53.550;9.926;2023-03-14T04:53:42;98177.78;;;14.79;67.48
43824;BME280;29470;53.550;9.926;2023-03-14T04:58:48;98178.22;;;15.23;64.79
43824;BME280;29470;53.550;9.926;2023-03-14T05:03:54;98169.38;;;15.07;64.46
43824;BME280;29470;53.550;9.926;2023-03-14T05:09:09;98176.53;;;15.28;65.10
43824;BME280;29470;53.550;9.926;2023-03-14T05:14:35;98180.09;;;14.56;70.14
43824;BME280;29470;53.550;9.926;2023-03-14T05:20:03;98175.06;;;14.01;77.31
43824;BME280;29470;53.550;9.926;2023-03-14T05:25:25;98175.78;;;13.92;78.54
43824;BME280;29470;53.550;9.926;2023-03-14T05:30:46;98170.88;;;14.13;78.17
43824;BME280;29470;53.550;9.926;2023-03-14T05:36:08;98165.31;;;14.52;76.75
43824;BME280;29470;53.550;9.926;2023-03-14T05:41:37;98158.31;;;14.49;77.30
43824;BME280;29470;53.550;9.926;2023-03-14T05:47:06;98149.13;;;14.76;75.60
43824;BME280;29470;53.550;9.926;2023-03-14T05:52:13;98143.88;;;14.02;79.87
43824;BME280;29470;53.550;9.926;2023-03-14T05:57:22;98148.47;;;14.22;77.18
43824;BME280;29470;53.550;9.926;2023-03-14T06:02:45;98141.25;;;14.01;78.75
43824;BME280;29470;53.550;9.926;2023-03-14T06:07:58;98137.31;;;14.34;79.03
43824;BME280;29470;53.550;9.926;2023-03-14T06:13:03;98135.03;;;14.58;76.80
43824;BME280;29470;53.550;9.926;2023-03-14T06:18:08;98152.22;;;13.79;79.26
43824;BME280;29470;53.550;9.926;2023-03-14T06:23:12;98146.50;;;14.05;78.02
43824;BME280;29470;53.550;9.926;2023-03-14T06:28:15;98152.25;;;13.82;78.70
43824;BME280;29470;53.550;9.926;2023-03-14T06:33:18;98155.03;;;13.93;78.47
43824;BME280;29470;53.550;9.926;2023-03-14T06:38:23;98160.91;;;14.49;76.60
43824;BME280;29470;53.550;9.926;2023-03-14T06:43:29;98178.34;;;15.38;70.74
43824;BME280;29470;53.550;9.926;2023-03-14T06:48:32;98174.56;;;16.10;66.95
43824;BME280;29470;53.550;9.926;2023-03-14T06:53:37;98191.16;;;15.15;69.12
43824;BME280;29470;53.550;9.926;2023-03-14T06:58:40;98198.50;;;14.71;70.28
43824;BME280;29470;53.550;9.926;2023-03-14T07:03:45;98196.78;;;14.70;68.48
43824;BME280;29470;53.550;9.926;2023-03-14T07:08:49;98191.84;;;14.97;66.95
43824;BME280;29470;53.550;9.926;2023-03-14T07:13:53;98198.66;;;14.18;69.33
43824;BME280;29470;53.550;9.926;2023-03-14T07:18:56;98212.00;;;15.16;66.18
43824;BME280;29470;53.550;9.926;2023-03-14T07:24:01;98217.84;;;14.92;65.12
43824;BME280;29470;53.550;9.926;2023-03-14T07:29:06;98211.03;;;15.05;64.94
43824;BME280;29470;53.550;9.926;2023-03-14T07:34:09;98212.69;;;14.98;67.81
43824;BME280;29470;53.550;9.926;2023-03-14T07:39:17;98208.06;;;15.64;65.95
43824;BME280;29470;53.550;9.926;2023-03-14T07:44:37;98204.19;;;15.18;66.37
43824;BME280;29470;53.550;9.926;2023-03-14T07:49:40;98220.09;;;14.66;66.99
43824;BME280;29470;53.550;9.926;2023-03-14T07:54:44;98222.81;;;15.57;64.98
43824;BME280;29470;53.550;9.926;2023-03-14T07:59:47;98215.88;;;15.59;63.66
43824;BME280;29470;53.550;9.926;2023-03-14T08:04:50;98217.00;;;14.96;66.67
43824;BME280;29470;53.550;9.926;2023-03-14T08:09:54;98221.94;;;15.59;63.17
43824;BME280;29470;53.550;9.926;2023-03-14T08:14:57;98214.75;;;16.51;59.43
43824;BME280;29470;53.550;9.926;2023-03-14T08:20:01;98211.81;;;15.94;61.12
43824;BME280;29470;53.550;9.926;2023-03-14T08:25:09;98212.34;;;17.01;57.88
43824;BME280;29470;53.550;9.926;2023-03-14T08:30:15;98205.19;;;15.28;62.32
43824;BME280;29470;53.550;9.926;2023-03-14T08:35:19;98200.84;;;16.55;59.18
43824;BME280;29470;53.550;9.926;2023-03-14T08:40:23;98199.16;;;16.67;60.76
43824;BME280;29470;53.550;9.926;2023-03-14T08:45:26;98202.53;;;16.44;59.96
43824;BME280;29470;53.550;9.926;2023-03-14T08:50:28;98205.91;;;16.24;60.74
43824;BME280;29470;53.550;9.926;2023-03-14T08:55:32;98202.63;;;16.66;60.14
43824;BME280;29470;53.550;9.926;2023-03-14T09:00:35;98206.63;;;16.01;62.25
43824;BME280;29470;53.550;9.926;2023-03-14T09:05:38;98206.56;;;15.87;64.05
43824;BME280;29470;53.550;9.926;2023-03-14T09:10:42;98196.50;;;15.29;65.89
43824;BME280;29470;53.550;9.926;2023-03-14T09:15:50;98199.63;;;15.91;65.06
43824;BME280;29470;53.550;9.926;2023-03-14T09:20:53;98193.25;;;15.55;65.60
43824;BME280;29470;53.550;9.926;2023-03-14T09:25:57;98203.00;;;15.78;64.33
43824;BME280;29470;53.550;9.926;2023-03-14T09:31:05;98226.06;;;15.36;65.77
43824;BME280;29470;53.550;9.926;2023-03-14T09:36:09;98221.81;;;15.44;67.84
43824;BME280;29470;53.550;9.926;2023-03-14T09:41:16;98224.22;;;16.33;63.61
43824;BME280;29470;53.550;9.926;2023-03-14T09:46:20;98237.28;;;15.27;70.25
43824;BME280;29470;53.550;9.926;2023-03-14T09:51:24;98290.75;;;14.95;70.71
43824;BME280;29470;53.550;9.926;2023-03-14T09:56:31;98320.97;;;13.73;67.68
43824;BME280;29470;53.550;9.926;2023-03-14T10:01:34;98344.84;;;14.59;65.50
43824;BME280;29470;53.550;9.926;2023-03-14T10:06:37;98360.38;;;13.50;66.88
43824;BME280;29470;53.550;9.926;2023-03-14T10:11:41;98391.16;;;12.53;71.47
43824;BME280;29470;53.550;9.926;2023-03-14T10:16:45;98396.09;;;11.74;70.38
43824;BME280;29470;53.550;9.926;2023-03-14T10:21:50;98415.53;;;12.23;69.56
43824;BME280;29470;53.550;9.926;2023-03-14T10:26:59;98435.72;;;12.03;69.64
43824;BME280;29470;53.550;9.926;2023-03-14T10:32:05;98469.59;;;11.48;71.00
43824;BME280;29470;53.550;9.926;2023-03-14T10:37:18;98502.63;;;11.88;68.96
43824;BME280;29470;53.550;9.926;2023-03-14T10:42:26;98524.59;;;11.12;70.68
43824;BME280;29470;53.550;9.926;2023-03-14T10:47:32;98545.72;;;10.99;67.42
43824;BME280;29470;53.550;9.926;2023-03-14T10:52:35;98573.56;;;9.83;67.97
43824;BME280;29470;53.550;9.926;2023-03-14T10:58:04;98610.50;;;10.27;65.95
43824;BME280;29470;53.550;9.926;2023-03-14T11:03:10;98632.44;;;10.39;63.68
43824;BME280;29470;53.550;9.926;2023-03-14T11:08:20;98667.94;;;10.20;64.80
43824;BME280;29470;53.550;9.926;2023-03-14T11:13:33;98672.16;;;10.41;63.12
43824;BME280;29470;53.550;9.926;2023-03-14T11:24:33;98720.53;;;10.22;61.22
43824;BME280;29470;53.550;9.926;2023-03-14T11:29:45;98758.22;;;10.17;62.14
43824;BME280;29470;53.550;9.926;2023-03-14T11:34:54;98775.16;;;10.31;59.82
43824;BME280;29470;53.550;9.926;2023-03-14T11:40:06;98790.84;;;10.36;58.33
43824;BME280;29470;53.550;9.926;2023-03-14T11:45:17;98801.53;;;10.23;58.55
43824;BME280;29470;53.550;9.926;2023-03-14T11:50:24;98808.50;;;10.94;55.70
43824;BME280;29470;53.550;9.926;2023-03-14T11:55:29;98802.97;;;11.83;53.86
43824;BME280;29470;53.550;9.926;2023-03-14T12:00:35;98823.34;;;10.75;53.71
43824;BME280;29470;53.550;9.926;2023-03-14T12:05:46;98827.69;;;10.99;53.59
43824;BME280;29470;53.550;9.926;2023-03-14T12:10:55;98831.56;;;11.12;51.93
43824;BME280;29470;53.550;9.926;2023-03-14T12:16:05;98848.25;;;10.73;51.98
43824;BME280;29470;53.550;9.926;2023-03-14T12:21:11;98868.75;;;10.68;52.59
43824;BME280;29470;53.550;9.926;2023-03-14T12:26:16;98870.38;;;11.12;52.13
43824;BME280;29470;53.550;9.926;2023-03-14T12:31:41;98891.31;;;10.72;52.52
43824;BME280;29470;53.550;9.926;2023-03-14T12:36:56;98899.38;;;11.26;51.92
43824;BME280;29470;53.550;9.926;2023-03-14T12:42:03;98909.78;;;11.04;53.03
43824;BME280;29470;53.550;9.926;2023-03-14T12:52:58;98928.09;;;10.42;53.68
43824;BME280;29470;53.550;9.926;2023-03-14T12:58:13;98981.75;;;9.68;60.35
43824;BME280;29470;53.550;9.926;2023-03-14T13:03:19;98996.72;;;9.37;63.85
43824;BME280;29470;53.550;9.926;2023-03-14T13:08:36;99007.41;;;9.84;63.67
43824;BME280;29470;53.550;9.926;2023-03-14T13:13:45;99015.47;;;10.31;61.85
43824;BME280;29470;53.550;9.926;2023-03-14T13:18:50;99014.22;;;11.07;58.07
43824;BME280;29470;53.550;9.926;2023-03-14T13:23:57;99037.13;;;11.18;50.94
43824;BME280;29470;53.550;9.926;2023-03-14T13:29:08;99058.38;;;10.28;47.28
43824;BME280;29470;53.550;9.926;2023-03-14T13:34:11;99096.91;;;10.03;41.78
43824;BME280;29470;53.550;9.926;2023-03-14T13:39:17;99086.72;;;10.87;42.40
43824;BME280;29470;53.550;9.926;2023-03-14T13:44:25;99118.03;;;10.52;40.74
43824;BME280;29470;53.550;9.926;2023-03-14T13:49:30;99112.22;;;10.99;41.82
43824;BME280;29470;53.550;9.926;2023-03-14T13:54:38;99116.69;;;10.82;43.61
43824;BME280;29470;53.550;9.926;2023-03-14T13:59:41;99138.97;;;10.58;42.16
43824;BME280;29470;53.550;9.926;2023-03-14T14:04:43;99136.00;;;10.49;44.05
43824;BME280;29470;53.550;9.926;2023-03-14T14:09:49;99172.81;;;10.25;45.24
43824;BME280;29470;53.550;9.926;2023-03-14T14:14:55;99187.66;;;9.92;45.51
43824;BME280;29470;53.550;9.926;2023-03-14T14:20:01;99194.50;;;11.08;42.85
43824;BME280;29470;53.550;9.926;2023-03-14T14:25:06;99171.88;;;10.82;40.17
43824;BME280;29470;53.550;9.926;2023-03-14T14:30:28;99200.22;;;10.59;41.19
43824;BME280;29470;53.550;9.926;2023-03-14T14:35:33;99219.53;;;10.87;40.96
43824;BME280;29470;53.550;9.926;2023-03-14T14:40:43;99240.06;;;10.65;40.72
43824;BME280;29470;53.550;9.926;2023-03-14T14:45:49;99256.69;;;10.14;39.62
43824;BME280;29470;53.550;9.926;2023-03-14T14:50:59;99273.97;;;9.61;40.07
43824;BME280;29470;53.550;9.926;2023-03-14T14:56:06;99282.06;;;10.59;38.94
43824;BME280;29470;53.550;9.926;2023-03-14T15:01:12;99293.91;;;9.63;40.93
43824;BME280;29470;53.550;9.926;2023-03-14T15:06:17;99301.94;;;10.60;40.63
43824;BME280;29470;53.550;9.926;2023-03-14T15:11:23;99316.84;;;9.93;41.96
43824;BME280;29470;53.550;9.926;2023-03-14T15:16:28;99337.44;;;9.92;43.06
43824;BME280;29470;53.550;9.926;2023-03-14T15:21:32;99350.09;;;10.58;43.44
43824;BME280;29470;53.550;9.926;2023-03-14T15:26:36;99369.00;;;9.86;44.76
43824;BME280;29470;53.550;9.926;2023-03-14T15:31:40;99381.06;;;10.03;44.70
43824;BME280;29470;53.550;9.926;2023-03-14T15:36:44;99386.03;;;10.17;41.96
43824;BME280;29470;53.550;9.926;2023-03-14T15:41:48;99405.25;;;9.87;42.62
43824;BME280;29470;53.550;9.926;2023-03-14T15:46:51;99408.84;;;10.26;42.12
43824;BME280;29470;53.550;9.926;2023-03-14T15:51:54;99435.56;;;10.08;42.53
43824;BME280;29470;53.550;9.926;2023-03-14T15:57:00;99449.66;;;10.15;42.61
43824;BME280;29470;53.550;9.926;2023-03-14T16:02:03;99459.25;;;9.17;43.60
43824;BME280;29470;53.550;9.926;2023-03-14T16:07:06;99483.22;;;9.47;43.48
43824;BME280;29470;53.550;9.926;2023-03-14T16:12:10;99492.53;;;9.28;42.26
43824;BME280;29470;53.550;9.926;2023-03-14T16:17:13;99508.63;;;9.39;41.96
43824;BME280;29470;53.550;9.926;2023-03-14T16:22:16;99507.63;;;9.21;42.54
43824;BME280;29470;53.550;9.926;2023-03-14T16:27:20;99533.81;;;9.28;43.35
43824;BME280;29470;53.550;9.926;2023-03-14T16:32:23;99535.47;;;9.11;43.75
43824;BME280;29470;53.550;9.926;2023-03-14T16:37:26;99543.28;;;8.66;44.87
43824;BME280;29470;53.550;9.926;2023-03-14T16:42:30;99556.25;;;8.53;44.67
43824;BME280;29470;53.550;9.926;2023-03-14T16:47:35;99567.31;;;8.37;45.30
43824;BME280;29470;53.550;9.926;2023-03-14T16:52:37;99573.69;;;8.14;45.65
43824;BME280;29470;53.550;9.926;2023-03-14T16:57:41;99595.81;;;8.25;45.45
43824;BME280;29470;53.550;9.926;2023-03-14T17:02:44;99601.84;;;7.82;46.42
43824;BME280;29470;53.550;9.926;2023-03-14T17:07:47;99600.59;;;8.19;46.51
43824;BME280;29470;53.550;9.926;2023-03-14T17:12:51;99629.47;;;7.71;45.92
43824;BME280;29470;53.550;9.926;2023-03-14T17:17:54;99643.16;;;7.99;45.55
43824;BME280;29470;53.550;9.926;2023-03-14T17:22:57;99664.09;;;7.76;46.88
43824;BME280;29470;53.550;9.926;2023-03-14T17:28:02;99667.91;;;7.96;47.47
43824;BME280;29470;53.550;9.926;2023-03-14T17:33:04;99688.47;;;7.68;48.47
43824;BME280;29470;53.550;9.926;2023-03-14T17:38:07;99693.13;;;7.60;49.28
43824;BME280;29470;53.550;9.926;2023-03-14T17:43:11;99711.66;;;7.02;50.23
43824;BME280;29470;53.550;9.926;2023-03-14T17:48:14;99723.81;;;7.57;49.37
43824;BME280;29470;53.550;9.926;2023-03-14T17:53:17;99726.75;;;7.23;49.98
43824;BME280;29470;53.550;9.926;2023-03-14T17:58:21;99741.06;;;7.19;49.74
43824;BME280;29470;53.550;9.926;2023-03-14T18:03:24;99761.25;;;6.88;50.34
43824;BME280;29470;53.550;9.926;2023-03-14T18:08:27;99778.19;;;7.23;50.01
43824;BME280;29470;53.550;9.926;2023-03-14T18:13:31;99784.09;;;6.83;51.09
43824;BME280;29470;53.550;9.926;2023-03-14T18:18:34;99802.53;;;6.77;51.40
43824;BME280;29470;53.550;9.926;2023-03-14T18:23:37;99812.09;;;6.92;51.72
43824;BME280;29470;53.550;9.926;2023-03-14T18:28:41;99826.72;;;7.18;52.23
43824;BME280;29470;53.550;9.926;2023-03-14T18:33:44;99835.94;;;7.67;51.22
43824;BME280;29470;53.550;9.926;2023-03-14T18:38:48;99848.63;;;7.64;52.46
43824;BME280;29470;53.550;9.926;2023-03-14T18:43:58;99861.88;;;7.57;53.35
43824;BME280;29470;53.550;9.926;2023-03-14T18:49:00;99868.28;;;6.99;55.00
43824;BME280;29470;53.550;9.926;2023-03-14T18:54:05;99873.06;;;6.81;56.59
43824;BME280;29470;53.550;9.926;2023-03-14T18:59:15;99889.50;;;6.47;58.00
43824;BME280;29470;53.550;9.926;2023-03-14T19:04:18;99902.72;;;6.28;58.23
43824;BME280;29470;53.550;9.926;2023-03-14T19:09:21;99914.88;;;6.31;58.93
43824;BME280;29470;53.550;9.926;2023-03-14T19:14:25;99920.91;;;6.43;58.83
43824;BME280;29470;53.550;9.926;2023-03-14T19:19:28;99922.69;;;6.56;58.99
43824;BME280;29470;53.550;9.926;2023-03-14T19:24:32;99932.69;;;7.01;58.52
43824;BME280;29470;53.550;9.926;2023-03-14T19:29:36;99933.13;;;6.95;59.32
43824;BME280;29470;53.550;9.926;2023-03-14T19:34:42;99950.38;;;6.84;59.10
43824;BME280;29470;53.550;9.926;2023-03-14T19:39:45;99958.53;;;6.55;58.90
43824;BME280;29470;53.550;9.926;2023-03-14T19:44:49;99964.34;;;6.40;59.94
43824;BME280;29470;53.550;9.926;2023-03-14T19:49:53;99967.25;;;6.57;59.44
43824;BME280;29470;53.550;9.926;2023-03-14T19:54:58;99982.22;;;6.74;59.03
43824;BME280;29470;53.550;9.926;2023-03-14T20:00:05;99990.56;;;7.07;58.05
43824;BME280;29470;53.550;9.926;2023-03-14T20:05:12;99997.59;;;7.22;57.62
43824;BME280;29470;53.550;9.926;2023-03-14T20:10:17;100013.41;;;6.67;58.82
43824;BME280;29470;53.550;9.926;2023-03-14T20:15:24;100019.63;;;6.23;61.30
43824;BME280;29470;53.550;9.926;2023-03-14T20:20:27;100059.06;;;6.36;61.72
43824;BME280;29470;53.550;9.926;2023-03-14T20:25:30;100084.50;;;5.43;68.35
43824;BME280;29470;53.550;9.926;2023-03-14T20:30:34;100081.94;;;6.32;66.00
43824;BME280;29470;53.550;9.926;2023-03-14T20:35:37;100093.06;;;6.21;64.51
43824;BME280;29470;53.550;9.926;2023-03-14T20:40:40;100093.06;;;6.55;66.25
43824;BME280;29470;53.550;9.926;2023-03-14T20:45:50;100101.22;;;6.61;67.63
43824;BME280;29470;53.550;9.926;2023-03-14T20:50:53;100097.22;;;6.31;68.09
43824;BME280;29470;53.550;9.926;2023-03-14T20:55:56;100111.22;;;5.90;71.63
43824;BME280;29470;53.550;9.926;2023-03-14T21:01:01;100102.19;;;5.95;70.56
43824;BME280;29470;53.550;9.926;2023-03-14T21:06:07;100102.97;;;5.94;70.02
43824;BME280;29470;53.550;9.926;2023-03-14T21:11:10;100114.69;;;5.90;70.01
43824;BME280;29470;53.550;9.926;2023-03-14T21:16:15;100118.31;;;6.27;70.05
43824;BME280;29470;53.550;9.926;2023-03-14T21:21:18;100134.78;;;5.41;73.49
43824;BME280;29470;53.550;9.926;2023-03-14T21:26:22;100142.84;;;5.79;73.80
43824;BME280;29470;53.550;9.926;2023-03-14T21:31:26;100147.78;;;5.98;72.69
43824;BME280;29470;53.550;9.926;2023-03-14T21:36:29;100166.50;;;5.31;75.06
43824;BME280;29470;53.550;9.926;2023-03-14T21:41:32;100170.34;;;5.37;74.84
43824;BME280;29470;53.550;9.926;2023-03-14T21:46:36;100166.72;;;6.10;72.02
43824;BME280;29470;53.550;9.926;2023-03-14T21:51:39;100173.19;;;5.95;72.52
43824;BME280;29470;53.550;9.926;2023-03-14T21:56:46;100166.56;;;6.31;70.67
43824;BME280;29470;53.550;9.926;2023-03-14T22:01:53;100181.91;;;5.97;70.45
43824;BME280;29470;53.550;9.926;2023-03-14T22:06:57;100193.66;;;6.15;71.06
43824;BME280;29470;53.550;9.926;2023-03-14T22:12:00;100186.78;;;6.26;69.78
43824;BME280;29470;53.550;9.926;2023-03-14T22:17:04;100196.75;;;6.11;69.35
43824;BME280;29470;53.550;9.926;2023-03-14T22:22:07;100187.50;;;6.82;68.13
43824;BME280;29470;53.550;9.926;2023-03-14T22:27:10;100205.09;;;6.09;68.71
43824;BME280;29470;53.550;9.926;2023-03-14T22:32:15;100203.69;;;6.12;68.55
43824;BME280;29470;53.550;9.926;2023-03-14T22:37:18;100220.50;;;6.53;68.53
43824;BME280;29470;53.550;9.926;2023-03-14T22:42:20;100202.59;;;6.43;67.80
43824;BME280;29470;53.550;9.926;2023-03-14T22:47:25;100210.00;;;6.28;67.50
43824;BME280;29470;53.550;9.926;2023-03-14T22:52:28;100216.97;;;6.18;68.08
43824;BME280;29470;53.550;9.926;2023-03-14T22:57:32;100228.59;;;5.70;69.62
43824;BME280;29470;53.550;9.926;2023-03-14T23:02:37;100234.75;;;6.15;68.46
43824;BME280;29470;53.550;9.926;2023-03-14T23:07:40;100242.19;;;6.34;67.57
43824;BME280;29470;53.550;9.926;2023-03-14T23:12:43;100239.69;;;6.24;67.02
43824;BME280;29470;53.550;9.926;2023-03-14T23:17:48;100254.03;;;6.00;66.35
43824;BME280;29470;53.550;9.926;2023-03-14T23:22:50;100246.97;;;6.08;65.94
43824;BME280;29470;53.550;9.926;2023-03-14T23:27:53;100259.56;;;5.94;66.36
43824;BME280;29470;53.550;9.926;2023-03-14T23:32:57;100260.34;;;5.50;68.66
43824;BME280;29470;53.550;9.926;2023-03-14T23:38:00;100256.59;;;6.10;65.76
43824;BME280;29470;53.550;9.926;2023-03-14T23:43:03;100258.28;;;5.56;69.15
43824;BME280;29470;53.550;9.926;2023-03-14T23:48:08;100269.09;;;5.31;71.14
43824;BME280;29470;53.550;9.926;2023-03-14T23:53:11;100284.44;;;5.52;70.75
43824;BME280;29470;53.550;9.926;2023-03-14T23:58:18;100287.47;;;5.79;69.06
